createdAt,value
2022-11-09T00:00:50.416Z,17.60
2022-11-09T00:03:17.348Z,17.59
2022-11-09T00:05:53.885Z,17.59
2022-11-09T00:08:20.335Z,17.58
2022-11-09T00:10:46.801Z,17.57
2022-11-09T00:13:13.260Z,17.55
2022-11-09T00:15:42.660Z,17.53
2022-11-09T00:18:09.158Z,17.53
2022-11-09T00:20:35.617Z,17.53
2022-11-09T00:23:02.093Z,17.51
2022-11-09T00:25:31.364Z,17.52
2022-11-09T00:27:57.837Z,17.53
2022-11-09T00:30:26.810Z,17.53
2022-11-09T00:32:53.336Z,17.53
2022-11-09T00:35:19.803Z,17.50
2022-11-09T00:37:46.395Z,17.48
2022-11-09T00:40:13.294Z,17.46
2022-11-09T00:42:39.837Z,17.46
2022-11-09T00:45:06.861Z,17.47
2022-11-09T00:47:33.429Z,17.48
2022-11-09T00:49:59.945Z,17.51
2022-11-09T00:52:26.425Z,17.53
2022-11-09T00:54:53.525Z,17.54
2022-11-09T00:57:20.039Z,17.55
2022-11-09T00:59:46.639Z,17.59
2022-11-09T01:02:13.137Z,17.60
2022-11-09T01:04:42.735Z,17.61
2022-11-09T01:07:09.289Z,17.59
2022-11-09T01:09:37.600Z,17.58
2022-11-09T01:12:04.130Z,17.57
2022-11-09T01:14:35.416Z,17.58
2022-11-09T01:17:03.388Z,17.54
2022-11-09T01:19:29.925Z,17.50
2022-11-09T01:21:56.649Z,17.49
2022-11-09T01:24:24.765Z,17.46
2022-11-09T01:26:51.250Z,17.42
2022-11-09T01:29:20.685Z,17.40
2022-11-09T01:31:48.482Z,17.39
2022-11-09T01:34:17.660Z,17.35
2022-11-09T01:36:44.316Z,17.34
2022-11-09T01:39:10.921Z,17.33
2022-11-09T01:41:38.123Z,17.33
2022-11-09T01:44:20.497Z,17.29
2022-11-09T01:47:07.912Z,17.28
2022-11-09T01:49:54.598Z,17.28
2022-11-09T01:52:35.660Z,17.27
2022-11-09T01:55:08.998Z,17.24
2022-11-09T01:57:47.675Z,17.20
2022-11-09T02:00:16.745Z,17.17
2022-11-09T02:02:51.082Z,17.15
2022-11-09T02:05:23.744Z,17.14
2022-11-09T02:07:52.754Z,17.14
2022-11-09T02:10:33.857Z,17.10
2022-11-09T02:13:02.272Z,17.07
2022-11-09T02:15:40.166Z,17.05
2022-11-09T02:18:10.944Z,17.05
2022-11-09T02:20:53.375Z,17.00
2022-11-09T02:23:23.188Z,16.98
2022-11-09T02:25:54.743Z,16.97
2022-11-09T02:28:21.896Z,16.96
2022-11-09T02:30:53.107Z,16.97
2022-11-09T02:33:20.078Z,16.96
2022-11-09T02:35:47.946Z,16.95
2022-11-09T02:38:15.374Z,16.92
2022-11-09T02:40:46.812Z,16.92
2022-11-09T02:43:15.573Z,16.91
2022-11-09T02:45:48.382Z,16.91
2022-11-09T02:48:15.354Z,16.89
2022-11-09T02:50:42.032Z,16.91
2022-11-09T02:53:08.953Z,16.91
2022-11-09T02:55:43.056Z,16.93
2022-11-09T02:58:09.628Z,16.94
2022-11-09T03:00:36.972Z,16.96
2022-11-09T03:03:04.183Z,16.97
2022-11-09T03:05:31.030Z,17.01
2022-11-09T03:08:02.274Z,17.02
2022-11-09T03:10:31.349Z,17.05
2022-11-09T03:12:57.825Z,17.07
2022-11-09T03:15:25.301Z,17.07
2022-11-09T03:17:51.769Z,17.08
2022-11-09T03:20:19.881Z,17.10
2022-11-09T03:22:48.375Z,17.12
2022-11-09T03:25:19.374Z,17.13
2022-11-09T03:27:45.892Z,17.17
2022-11-09T03:30:13.083Z,17.19
2022-11-09T03:32:40.233Z,17.21
2022-11-09T03:35:12.083Z,17.24
2022-11-09T03:37:39.038Z,17.22
2022-11-09T03:40:06.353Z,17.21
2022-11-09T03:42:32.889Z,17.20
2022-11-09T03:45:03.841Z,17.18
2022-11-09T03:47:30.341Z,17.18
2022-11-09T03:49:57.045Z,17.17
2022-11-09T03:52:23.613Z,17.18
2022-11-09T03:54:50.482Z,17.17
2022-11-09T03:57:16.967Z,17.18
2022-11-09T03:59:43.433Z,17.17
2022-11-09T04:02:09.978Z,17.18
2022-11-09T04:04:40.452Z,17.18
2022-11-09T04:07:07.002Z,17.18
2022-11-09T04:09:33.471Z,17.16
2022-11-09T04:11:59.972Z,17.15
2022-11-09T04:14:28.273Z,17.13
2022-11-09T04:16:54.754Z,17.12
2022-11-09T04:19:21.468Z,17.12
2022-11-09T04:21:48.266Z,17.11
2022-11-09T04:24:19.126Z,17.09
2022-11-09T04:26:47.312Z,17.09
2022-11-09T04:29:13.998Z,17.08
2022-11-09T04:31:40.494Z,17.07
2022-11-09T04:34:07.077Z,17.09
2022-11-09T04:36:33.811Z,17.09
2022-11-09T04:39:00.388Z,17.08
2022-11-09T04:41:27.863Z,17.08
2022-11-09T04:43:54.464Z,17.07
2022-11-09T04:46:21.051Z,17.03
2022-11-09T04:48:47.522Z,16.98
2022-11-09T04:51:14.300Z,16.96
2022-11-09T04:53:40.819Z,16.93
2022-11-09T04:56:08.043Z,16.92
2022-11-09T04:58:34.954Z,16.89
2022-11-09T05:01:13.503Z,16.86
2022-11-09T05:03:41.088Z,16.86
2022-11-09T05:06:27.073Z,16.84
2022-11-09T05:08:54.510Z,16.82
2022-11-09T05:11:22.232Z,16.79
2022-11-09T05:13:49.077Z,16.78
2022-11-09T05:16:17.579Z,16.76
2022-11-09T05:18:44.530Z,16.75
2022-11-09T05:21:11.658Z,16.73
2022-11-09T05:23:57.272Z,16.69
2022-11-09T05:26:30.603Z,16.66
2022-11-09T05:28:59.320Z,16.61
2022-11-09T05:31:27.256Z,16.57
2022-11-09T05:33:54.302Z,16.53
2022-11-09T05:36:22.180Z,16.50
2022-11-09T05:38:49.074Z,16.47
2022-11-09T05:41:16.288Z,16.48
2022-11-09T05:43:44.683Z,16.46
2022-11-09T05:46:15.430Z,16.43
2022-11-09T05:48:42.916Z,16.41
2022-11-09T05:51:11.989Z,16.39
2022-11-09T05:53:42.386Z,16.38
2022-11-09T05:56:13.373Z,16.36
2022-11-09T05:58:41.301Z,16.35
2022-11-09T06:01:10.432Z,16.33
2022-11-09T06:03:37.641Z,16.31
2022-11-09T06:06:08.587Z,16.27
2022-11-09T06:08:35.864Z,16.26
2022-11-09T06:11:05.400Z,16.23
2022-11-09T06:13:32.638Z,16.21
2022-11-09T06:16:04.272Z,16.19
2022-11-09T06:18:33.102Z,16.19
2022-11-09T06:21:01.855Z,16.17
2022-11-09T06:23:29.392Z,16.15
2022-11-09T06:26:01.675Z,16.14
2022-11-09T06:28:28.737Z,16.13
2022-11-09T06:31:03.737Z,16.12
2022-11-09T06:33:32.000Z,16.11
2022-11-09T06:36:00.091Z,16.11
2022-11-09T06:38:26.990Z,16.11
2022-11-09T06:40:55.234Z,16.11
2022-11-09T06:43:23.078Z,16.11
2022-11-09T06:45:50.251Z,16.11
2022-11-09T06:48:16.810Z,16.11
2022-11-09T06:50:43.594Z,16.09
2022-11-09T06:53:12.742Z,16.05
2022-11-09T06:55:49.105Z,16.04
2022-11-09T06:58:18.265Z,16.01
2022-11-09T07:00:45.541Z,15.99
2022-11-09T07:03:16.824Z,15.95
2022-11-09T07:05:45.539Z,15.92
2022-11-09T07:08:12.736Z,15.92
2022-11-09T07:10:39.642Z,15.91
2022-11-09T07:13:07.218Z,15.90
2022-11-09T07:15:35.354Z,15.88
2022-11-09T07:18:04.351Z,15.85
2022-11-09T07:20:31.256Z,15.83
2022-11-09T07:22:58.150Z,15.82
2022-11-09T07:25:27.126Z,15.80
2022-11-09T07:27:53.773Z,15.78
2022-11-09T07:30:20.253Z,15.77
2022-11-09T07:33:07.899Z,15.77
2022-11-09T07:35:34.677Z,15.79
2022-11-09T07:38:02.078Z,15.82
2022-11-09T07:40:29.236Z,15.86
2022-11-09T07:43:04.717Z,15.94
2022-11-09T07:45:36.111Z,16.02
2022-11-09T07:48:05.711Z,16.11
2022-11-09T07:50:33.414Z,16.20
2022-11-09T07:53:01.897Z,16.33
2022-11-09T07:55:33.441Z,16.42
2022-11-09T07:58:02.820Z,16.48
2022-11-09T08:00:31.428Z,16.52
2022-11-09T08:02:58.081Z,16.58
2022-11-09T08:05:24.960Z,16.63
2022-11-09T08:07:59.410Z,16.63
2022-11-09T08:10:27.391Z,16.63
2022-11-09T08:12:55.591Z,16.66
2022-11-09T08:15:24.411Z,16.70
2022-11-09T08:17:51.188Z,16.73
2022-11-09T08:20:18.198Z,16.76
2022-11-09T08:22:46.231Z,16.79
2022-11-09T08:25:17.588Z,16.78
2022-11-09T08:27:44.069Z,16.78
2022-11-09T08:30:14.301Z,16.78
2022-11-09T08:32:42.342Z,16.81
2022-11-09T08:35:12.482Z,16.82
2022-11-09T08:37:39.779Z,16.85
2022-11-09T08:40:07.300Z,16.88
2022-11-09T08:42:33.960Z,16.93
2022-11-09T08:45:02.084Z,16.98
2022-11-09T08:47:29.059Z,17.02
2022-11-09T08:49:55.846Z,17.06
2022-11-09T08:52:22.403Z,17.13
2022-11-09T08:54:49.025Z,17.17
2022-11-09T08:57:18.922Z,17.21
2022-11-09T08:59:46.168Z,17.29
2022-11-09T09:02:13.436Z,17.36
2022-11-09T09:04:44.432Z,17.46
2022-11-09T09:07:11.053Z,17.57
2022-11-09T09:09:40.176Z,17.67
2022-11-09T09:12:08.292Z,17.77
2022-11-09T09:14:39.140Z,17.89
2022-11-09T09:17:05.835Z,17.99
2022-11-09T09:19:32.359Z,18.04
2022-11-09T09:21:59.391Z,18.15
2022-11-09T09:24:30.516Z,18.26
2022-11-09T09:26:57.030Z,18.36
2022-11-09T09:29:23.714Z,18.45
2022-11-09T09:31:50.262Z,18.56
2022-11-09T09:34:18.471Z,18.66
2022-11-09T09:36:48.322Z,18.74
2022-11-09T09:39:15.638Z,18.78
2022-11-09T09:42:04.858Z,18.85
2022-11-09T09:44:46.391Z,18.93
2022-11-09T09:47:22.157Z,19.00
2022-11-09T09:50:13.634Z,19.07
2022-11-09T09:53:04.747Z,19.11
2022-11-09T09:55:42.889Z,19.14
2022-11-09T09:58:16.413Z,19.15
2022-11-09T10:00:43.910Z,19.17
2022-11-09T10:03:20.229Z,19.14
2022-11-09T10:05:58.668Z,19.18
2022-11-09T10:08:47.116Z,19.28
2022-11-09T10:11:47.812Z,19.38
2022-11-09T10:14:17.806Z,19.47
2022-11-09T10:17:09.409Z,19.51
2022-11-09T10:19:50.315Z,19.57
2022-11-09T10:22:26.277Z,19.66
2022-11-09T10:28:12.821Z,19.95
2022-11-09T10:30:40.460Z,20.05
2022-11-09T10:33:09.898Z,20.11
2022-11-09T10:35:53.591Z,20.17
2022-11-09T10:38:29.292Z,20.23
2022-11-09T10:41:39.778Z,20.33
2022-11-09T10:44:26.250Z,20.40
2022-11-09T10:47:14.555Z,20.43
2022-11-09T10:50:08.052Z,20.49
2022-11-09T10:52:53.181Z,20.57
2022-11-09T10:55:49.272Z,20.61
2022-11-09T10:58:40.696Z,20.66
2022-11-09T11:01:36.751Z,20.70
2022-11-09T11:04:26.701Z,20.72
2022-11-09T11:07:21.284Z,20.75
2022-11-09T11:10:15.606Z,20.77
2022-11-09T11:13:00.398Z,20.74
2022-11-09T11:15:52.894Z,20.61
2022-11-09T11:18:37.962Z,20.51
2022-11-09T11:21:24.307Z,20.36
2022-11-09T11:24:21.354Z,20.22
2022-11-09T11:27:16.408Z,20.06
2022-11-09T11:30:15.839Z,19.92
2022-11-09T11:33:00.873Z,19.89
2022-11-09T11:35:53.489Z,19.92
2022-11-09T11:38:53.282Z,19.96
2022-11-09T11:42:05.613Z,19.93
2022-11-09T11:45:41.006Z,19.83
2022-11-09T11:48:49.633Z,19.73
2022-11-09T11:52:23.461Z,19.64
2022-11-09T11:55:26.557Z,19.61
2022-11-09T11:58:55.121Z,19.54
2022-11-09T12:02:31.689Z,19.42
2022-11-09T12:05:16.871Z,19.36
2022-11-09T12:08:40.215Z,19.28
2022-11-09T12:11:54.858Z,19.18
2022-11-09T12:15:01.880Z,19.14
2022-11-09T12:18:34.613Z,19.20
2022-11-09T12:21:41.503Z,19.29
2022-11-09T12:24:46.671Z,19.32
2022-11-09T12:27:56.475Z,19.36
2022-11-09T12:30:54.844Z,19.42
2022-11-09T12:34:01.786Z,19.48
2022-11-09T12:37:02.593Z,19.57
2022-11-09T12:39:52.654Z,19.66
2022-11-09T12:42:53.918Z,19.78
2022-11-09T12:45:44.222Z,19.88
2022-11-09T12:48:32.192Z,19.86
2022-11-09T12:51:18.347Z,19.79
2022-11-09T12:57:15.854Z,19.67
2022-11-09T13:00:01.109Z,19.65
2022-11-09T13:02:58.515Z,19.60
2022-11-09T13:05:45.736Z,19.58
2022-11-09T13:08:32.004Z,19.59
2022-11-09T13:11:21.755Z,19.64
2022-11-09T13:14:22.219Z,19.71
2022-11-09T13:17:26.070Z,19.80
2022-11-09T13:20:56.950Z,19.79
2022-11-09T13:26:48.501Z,19.83
2022-11-09T13:29:39.820Z,19.83
2022-11-09T13:32:27.669Z,19.84
2022-11-09T13:35:42.047Z,19.87
2022-11-09T13:38:30.646Z,19.87
2022-11-09T13:41:34.153Z,19.82
2022-11-09T13:44:26.270Z,19.76
2022-11-09T13:47:27.931Z,19.64
2022-11-09T13:50:22.621Z,19.56
2022-11-09T13:53:27.911Z,19.45
2022-11-09T13:56:24.766Z,19.34
2022-11-09T13:59:39.073Z,19.27
2022-11-09T14:02:26.237Z,19.20
2022-11-09T14:05:44.240Z,19.09
2022-11-09T14:08:37.530Z,19.09
2022-11-09T14:12:10.241Z,19.05
2022-11-09T14:15:32.582Z,19.01
2022-11-09T14:18:32.734Z,18.92
2022-11-09T14:21:24.621Z,18.87
2022-11-09T14:24:22.109Z,18.83
2022-11-09T14:27:10.267Z,18.79
2022-11-09T14:29:59.361Z,18.75
2022-11-09T14:32:49.721Z,18.73
2022-11-09T14:35:39.220Z,18.72
2022-11-09T14:38:31.039Z,18.71
2022-11-09T14:41:31.160Z,18.67
2022-11-09T14:44:40.211Z,18.63
2022-11-09T14:47:31.842Z,18.59
2022-11-09T14:50:26.601Z,18.51
2022-11-09T14:53:18.972Z,18.43
2022-11-09T14:56:12.234Z,18.37
2022-11-09T14:58:58.297Z,18.31
2022-11-09T15:02:02.733Z,18.25
2022-11-09T15:05:01.981Z,18.19
2022-11-09T15:07:50.706Z,18.15
2022-11-09T15:10:36.371Z,18.12
2022-11-09T15:13:37.518Z,18.08
2022-11-09T15:16:26.394Z,18.03
2022-11-09T15:19:29.349Z,17.99
2022-11-09T15:22:48.803Z,17.97
2022-11-09T15:25:56.048Z,17.90
2022-11-09T15:28:46.648Z,17.90
2022-11-09T15:31:31.474Z,17.89
2022-11-09T15:34:24.644Z,17.86
2022-11-09T15:37:29.669Z,17.84
2022-11-09T15:40:19.818Z,17.81
2022-11-09T15:43:05.321Z,17.74
2022-11-09T15:45:50.809Z,17.75
2022-11-09T15:48:35.781Z,17.81
2022-11-09T15:51:20.967Z,17.85
2022-11-09T15:54:06.227Z,17.84
2022-11-09T15:57:03.064Z,17.83
2022-11-09T15:59:48.498Z,17.79
2022-11-09T16:02:33.764Z,17.82
2022-11-09T16:05:25.478Z,17.79
2022-11-09T16:08:10.721Z,17.81
2022-11-09T16:10:55.882Z,17.80
2022-11-09T16:13:40.835Z,17.76
2022-11-09T16:16:27.728Z,17.70
2022-11-09T16:19:14.221Z,17.66
2022-11-09T16:22:02.070Z,17.60
2022-11-09T16:24:48.294Z,17.53
2022-11-09T16:27:49.672Z,17.50
2022-11-09T16:30:35.580Z,17.46
2022-11-09T16:33:20.695Z,17.40
2022-11-09T16:36:13.533Z,17.37
2022-11-09T16:39:04.081Z,17.31
2022-11-09T16:41:51.498Z,17.27
2022-11-09T16:44:44.954Z,17.19
2022-11-09T16:47:30.398Z,17.17
2022-11-09T16:50:15.918Z,17.17
2022-11-09T16:53:01.048Z,17.12
2022-11-09T16:55:51.982Z,17.10
2022-11-09T16:58:37.706Z,17.08
2022-11-09T17:01:23.685Z,17.06
2022-11-09T17:04:09.258Z,17.07
2022-11-09T17:06:54.818Z,17.04
2022-11-09T17:09:40.021Z,16.97
2022-11-09T17:12:25.010Z,16.90
2022-11-09T17:15:10.682Z,16.87
2022-11-09T17:17:56.090Z,16.83
2022-11-09T17:20:46.478Z,16.75
2022-11-09T17:23:31.504Z,16.71
2022-11-09T17:26:17.867Z,16.64
2022-11-09T17:29:03.852Z,16.57
2022-11-09T17:31:48.848Z,16.55
2022-11-09T17:34:40.015Z,16.53
2022-11-09T17:37:25.284Z,16.53
2022-11-09T17:40:10.643Z,16.52
2022-11-09T17:42:56.978Z,16.49
2022-11-09T17:45:46.584Z,16.47
2022-11-09T17:48:33.427Z,16.45
2022-11-09T17:51:19.984Z,16.43
2022-11-09T17:54:05.256Z,16.42
2022-11-09T17:56:52.075Z,16.40
2022-11-09T17:59:39.685Z,16.37
2022-11-09T18:02:25.357Z,16.38
2022-11-09T18:05:11.278Z,16.36
2022-11-09T18:07:56.210Z,16.33
2022-11-09T18:10:43.882Z,16.30
2022-11-09T18:13:29.071Z,16.27
2022-11-09T18:16:17.856Z,16.23
2022-11-09T18:19:04.806Z,16.19
2022-11-09T18:21:49.788Z,16.15
2022-11-09T18:24:39.336Z,16.15
2022-11-09T18:27:29.072Z,16.15
2022-11-09T18:30:16.593Z,16.16
2022-11-09T18:33:01.752Z,16.14
2022-11-09T18:36:01.766Z,16.13
2022-11-09T18:38:47.239Z,16.12
2022-11-09T18:41:33.002Z,16.09
2022-11-09T18:44:18.305Z,16.06
2022-11-09T18:47:05.675Z,16.03
2022-11-09T18:49:51.192Z,15.99
2022-11-09T18:52:36.850Z,15.96
2022-11-09T18:55:22.073Z,15.92
2022-11-09T18:58:07.173Z,15.91
2022-11-09T19:00:59.944Z,15.88
2022-11-09T19:03:45.357Z,15.84
2022-11-09T19:06:30.724Z,15.79
2022-11-09T19:09:34.472Z,15.77
2022-11-09T19:12:19.573Z,15.71
2022-11-09T19:15:07.754Z,15.68
2022-11-09T19:17:53.860Z,15.62
2022-11-09T19:20:39.200Z,15.60
2022-11-09T19:23:28.385Z,15.54
2022-11-09T19:26:17.745Z,15.48
2022-11-09T19:29:02.916Z,15.44
2022-11-09T19:31:48.570Z,15.45
2022-11-09T19:34:34.550Z,15.45
2022-11-09T19:37:19.381Z,15.46
2022-11-09T19:40:05.374Z,15.40
2022-11-09T19:42:50.233Z,15.36
2022-11-09T19:45:40.178Z,15.32
2022-11-09T19:48:25.560Z,15.26
2022-11-09T19:51:10.838Z,15.25
2022-11-09T19:53:57.362Z,15.24
2022-11-09T19:56:42.763Z,15.23
2022-11-09T19:59:27.893Z,15.23
2022-11-09T20:02:12.993Z,15.23
2022-11-09T20:05:03.100Z,15.21
2022-11-09T20:07:48.115Z,15.19
2022-11-09T20:10:37.181Z,15.16
2022-11-09T20:13:22.873Z,15.15
2022-11-09T20:16:10.368Z,15.15
2022-11-09T20:18:55.612Z,15.13
2022-11-09T20:21:41.514Z,15.10
2022-11-09T20:24:27.685Z,15.10
2022-11-09T20:27:12.780Z,15.10
2022-11-09T20:29:57.648Z,15.08
2022-11-09T20:32:42.720Z,15.06
2022-11-09T20:35:27.776Z,15.06
2022-11-09T20:38:12.912Z,15.06
2022-11-09T20:41:00.895Z,15.06
2022-11-09T20:43:46.756Z,15.05
2022-11-09T20:46:36.183Z,15.05
2022-11-09T20:49:22.305Z,15.07
2022-11-09T20:52:07.255Z,15.07
2022-11-09T20:54:55.334Z,15.06
2022-11-09T20:57:40.535Z,15.07
2022-11-09T21:00:25.655Z,15.07
2022-11-09T21:03:10.863Z,15.06
2022-11-09T21:05:59.447Z,15.06
2022-11-09T21:08:52.586Z,15.06
2022-11-09T21:12:00.854Z,15.06
2022-11-09T21:14:47.590Z,15.05
2022-11-09T21:17:32.790Z,15.03
2022-11-09T21:20:18.175Z,14.99
2022-11-09T21:23:23.495Z,14.99
2022-11-09T21:26:27.649Z,14.97
2022-11-09T21:29:35.206Z,14.97
2022-11-09T21:32:22.073Z,14.96
2022-11-09T21:35:08.630Z,14.96
2022-11-09T21:37:56.562Z,14.92
2022-11-09T21:40:41.634Z,14.90
2022-11-09T21:43:26.996Z,14.89
2022-11-09T21:46:12.212Z,14.85
2022-11-09T21:48:57.758Z,14.81
2022-11-09T21:51:42.934Z,14.78
2022-11-09T21:54:31.587Z,14.79
2022-11-09T21:57:16.949Z,14.77
2022-11-09T22:00:01.705Z,14.76
2022-11-09T22:02:46.618Z,14.70
2022-11-09T22:05:33.610Z,14.65
2022-11-09T22:08:18.721Z,14.62
2022-11-09T22:11:45.218Z,14.59
2022-11-09T22:14:52.185Z,14.59
2022-11-09T22:17:37.226Z,14.55
2022-11-09T22:20:42.172Z,14.54
2022-11-09T22:23:27.299Z,14.54
2022-11-09T22:26:12.752Z,14.53
2022-11-09T22:28:58.745Z,14.55
2022-11-09T22:31:43.937Z,14.57
2022-11-09T22:34:30.714Z,14.61
2022-11-09T22:37:16.106Z,14.60
2022-11-09T22:40:01.145Z,14.60
2022-11-09T22:42:45.994Z,14.59
2022-11-09T22:45:33.631Z,14.58
2022-11-09T22:48:18.936Z,14.57
2022-11-09T22:51:05.108Z,14.55
2022-11-09T22:53:51.153Z,14.57
2022-11-09T22:56:36.515Z,14.54
2022-11-09T22:59:21.465Z,14.54
2022-11-09T23:02:06.523Z,14.51
2022-11-09T23:04:51.406Z,14.50
2022-11-09T23:07:36.678Z,14.46
2022-11-09T23:10:21.953Z,14.46
2022-11-09T23:13:07.446Z,14.45
2022-11-09T23:15:57.181Z,14.44
2022-11-09T23:18:54.889Z,14.45
2022-11-09T23:21:40.147Z,14.44
2022-11-09T23:24:44.133Z,14.42
2022-11-09T23:27:29.441Z,14.41
2022-11-09T23:30:14.764Z,14.41
2022-11-09T23:33:01.385Z,14.41
2022-11-09T23:35:48.542Z,14.41
2022-11-09T23:38:36.292Z,14.40
2022-11-09T23:41:21.735Z,14.39
2022-11-09T23:44:06.730Z,14.37
2022-11-09T23:46:52.467Z,14.34
2022-11-09T23:49:37.232Z,14.31
2022-11-09T23:52:22.232Z,14.29
2022-11-09T23:55:07.579Z,14.28
2022-11-09T23:57:53.011Z,14.27
